Time;durP1;ratioP1;P1;durP2;ratioP2;P2;SDS_P1;SDS_P2;PMS_P1;PMS_P2;Temp;Humidity;BMP_temperature;BMP_pressure;BME280_temperature;BME280_humidity;BME280_pressure;Samples;Min_cycle;Max_cycle;Signal;HPM_P1;HPM_P2
2022/01/03 00:00:19;;;;;;;17.67;2.28;;;;;;;8.25;74.98;99381.38;4961601;28;20054;-54
2022/01/03 00:02:46;;;;;;;15.48;2.20;;;;;;;8.22;76.21;99383.09;4963152;28;20484;-56
2022/01/03 00:05:13;;;;;;;10.00;1.45;;;;;;;8.16;76.08;99383.13;4964110;28;20134;-53
2022/01/03 00:07:42;;;;;;;13.23;2.50;;;;;;;8.11;75.20;99377.13;4964775;28;21774;-56
2022/01/03 00:10:10;;;;;;;16.02;1.55;;;;;;;8.08;75.74;99377.13;4962072;28;20059;-57
2022/01/03 00:12:38;;;;;;;11.25;1.65;;;;;;;8.05;76.11;99397.78;4963442;28;20568;-51
2022/01/03 00:15:08;;;;;;;20.13;1.95;;;;;;;8.01;76.29;99376.31;4964586;28;20063;-55
2022/01/03 00:17:35;;;;;;;16.55;1.70;;;;;;;7.98;75.47;99379.72;4963946;28;20046;-55
2022/01/03 00:20:02;;;;;;;10.35;1.38;;;;;;;7.95;76.47;99390.06;4963521;28;20051;-57
2022/01/03 00:22:35;;;;;;;10.27;1.88;;;;;;;7.94;75.95;99380.59;4960548;28;20066;-52
2022/01/03 00:25:05;;;;;;;13.45;2.17;;;;;;;7.93;76.78;99385.75;4963579;28;20114;-55
2022/01/03 00:27:42;;;;;;;17.25;1.30;;;;;;;7.90;76.05;99381.47;4963791;28;20561;-55
2022/01/03 00:30:10;;;;;;;13.88;1.55;;;;;;;7.90;76.07;99386.63;4963032;28;20042;-54
2022/01/03 00:32:39;;;;;;;14.50;1.85;;;;;;;7.91;76.88;99392.66;4964955;28;20114;-56
2022/01/03 00:35:06;;;;;;;19.70;1.27;;;;;;;7.89;77.05;99400.38;4963986;28;20046;-57
2022/01/03 00:37:35;;;;;;;13.30;1.42;;;;;;;7.90;76.75;99391.78;4964025;28;20105;-54
2022/01/03 00:40:03;;;;;;;18.23;1.85;;;;;;;7.91;75.88;99385.75;4962925;28;20113;-57
2022/01/03 00:42:31;;;;;;;11.77;1.27;;;;;;;7.94;75.94;99393.50;4961711;28;20046;-55
2022/01/03 00:45:01;;;;;;;13.77;1.70;;;;;;;7.97;76.34;99396.06;4963747;28;20054;-54
2022/01/03 00:47:32;;;;;;;10.93;1.17;;;;;;;8.03;76.21;99386.59;4963799;28;20045;-49
2022/01/03 00:50:04;;;;;;;27.52;2.00;;;;;;;8.04;76.75;99388.31;4961686;28;20117;-56
2022/01/03 00:52:30;;;;;;;16.60;1.38;;;;;;;8.02;76.07;99384.88;4963746;28;20062;-56
2022/01/03 00:54:57;;;;;;;16.02;1.80;;;;;;;7.97;75.93;99384.88;4963641;28;20364;-52
2022/01/03 00:57:34;;;;;;;15.05;1.50;;;;;;;7.96;76.73;99384.03;4961290;28;20051;-58
2022/01/03 01:00:08;;;;;;;16.08;1.20;;;;;;;7.94;76.64;99392.66;4965154;28;20654;-51
2022/01/03 01:02:36;;;;;;;23.83;2.25;;;;;;;7.92;77.13;99379.75;4967239;28;20078;-54
2022/01/03 01:05:05;;;;;;;15.50;1.33;;;;;;;7.94;76.33;99398.66;4961314;28;20051;-57
2022/01/03 01:07:32;;;;;;;17.35;1.98;;;;;;;7.94;76.67;99398.66;4964972;28;20051;-56
2022/01/03 01:10:01;;;;;;;9.48;1.00;;;;;;;7.97;76.24;99383.16;4964471;28;20058;-55
2022/01/03 01:12:30;;;;;;;20.92;1.98;;;;;;;8.01;76.11;99388.31;4964925;28;20047;-56
2022/01/03 01:14:57;;;;;;;15.52;2.08;;;;;;;7.97;76.02;99385.75;4963321;28;20515;-56
2022/01/03 01:17:26;;;;;;;9.98;1.58;;;;;;;7.94;76.01;99382.34;4959613;28;20047;-55
2022/01/03 01:19:56;;;;;;;18.48;1.65;;;;;;;7.93;76.96;99384.03;4968815;28;20055;-57
2022/01/03 01:22:23;;;;;;;14.38;1.63;;;;;;;7.91;76.04;99388.34;4965799;28;20101;-53
2022/01/03 01:25:10;;;;;;;10.98;1.40;;;;;;;7.92;76.97;99390.06;4966652;28;20051;-58
2022/01/03 01:27:53;;;;;;;8.55;1.10;;;;;;;7.90;76.49;99381.47;4959381;28;20047;-57
2022/01/03 01:30:23;;;;;;;13.43;1.92;;;;;;;7.91;77.21;99367.72;4952582;28;20522;-54
2022/01/03 01:32:59;;;;;;;10.43;1.00;;;;;;;7.92;76.33;99374.59;4963698;28;20519;-58
2022/01/03 01:35:35;;;;;;;14.32;1.30;;;;;;;7.91;76.15;99378.03;4961941;28;20494;-56
2022/01/03 01:38:02;;;;;;;12.68;1.85;;;;;;;7.93;76.19;99381.47;4967054;28;20554;-56
2022/01/03 01:40:29;;;;;;;18.02;2.17;;;;;;;7.92;76.38;99382.34;4963536;28;20101;-56
2022/01/03 01:42:56;;;;;;;14.20;1.88;;;;;;;7.96;77.03;99384.03;4968499;28;20055;-56
2022/01/03 01:45:26;;;;;;;15.32;1.30;;;;;;;8.00;77.00;99381.47;4970086;28;20055;-55
2022/01/03 01:47:59;;;;;;;19.83;1.70;;;;;;;8.05;76.23;99383.16;4968091;28;20555;-56
2022/01/03 01:50:27;;;;;;;15.63;1.35;;;;;;;8.04;76.85;99376.28;4968567;28;20494;-56
2022/01/03 01:52:56;;;;;;;16.05;2.85;;;;;;;8.04;77.46;99378.84;4968207;28;20458;-57
2022/01/03 01:55:23;;;;;;;14.15;2.00;;;;;;;8.04;77.43;99378.84;4957686;28;20482;-55
2022/01/03 01:58:05;;;;;;;9.02;1.13;;;;;;;8.03;77.36;99373.69;4965491;28;20059;-56
2022/01/03 02:00:33;;;;;;;10.32;1.08;;;;;;;8.08;76.14;99390.03;4968697;28;20101;-54
2022/01/03 02:03:26;;;;;;;11.10;1.35;;;;;;;8.08;76.12;99374.56;4969352;28;20318;-56
2022/01/03 02:06:07;;;;;;;16.85;2.10;;;;;;;8.10;76.45;99380.56;4962473;28;20406;-50
2022/01/03 02:08:44;;;;;;;15.27;2.13;;;;;;;8.14;76.50;99384.00;4962449;28;20055;-52
2022/01/03 02:11:23;;;;;;;8.18;0.98;;;;;;;8.12;76.76;99376.25;4968152;28;20390;-53
2022/01/03 02:13:50;;;;;;;14.32;1.48;;;;;;;8.09;76.31;99376.25;4951499;28;20051;-56
2022/01/03 02:16:17;;;;;;;15.20;1.48;;;;;;;8.07;76.83;99385.75;4969274;28;20094;-54
2022/01/03 02:18:44;;;;;;;13.40;1.25;;;;;;;8.13;76.86;99371.94;4970875;28;20105;-53
2022/01/03 02:21:10;;;;;;;11.07;1.20;;;;;;;8.12;76.91;99373.69;4967597;28;20054;-51
2022/01/03 02:23:38;;;;;;;7.10;1.40;;;;;;;8.14;76.03;99373.69;4967562;28;20047;-55
2022/01/03 02:26:04;;;;;;;14.95;2.60;;;;;;;8.16;77.36;99370.22;4965727;28;23073;-58
2022/01/03 02:28:31;;;;;;;12.75;1.60;;;;;;;8.11;76.59;99364.22;4964531;28;20141;-54
2022/01/03 02:31:28;;;;;;;8.38;1.10;;;;;;;8.08;76.55;99353.91;4971333;28;20121;-58
2022/01/03 02:34:11;;;;;;;13.13;1.27;;;;;;;8.07;77.78;99357.38;4967130;28;20043;-55
2022/01/03 02:36:44;;;;;;;11.57;1.70;;;;;;;8.12;77.00;99360.78;4959717;28;20084;-59
2022/01/03 02:39:10;;;;;;;10.48;0.95;;;;;;;8.11;76.68;99351.34;4960224;28;20483;-52
2022/01/03 02:41:37;;;;;;;15.65;1.20;;;;;;;8.12;76.98;99350.47;4967612;28;20093;-55
2022/01/03 02:44:04;;;;;;;10.73;1.73;;;;;;;8.10;77.03;99347.03;4967496;28;20043;-59
2022/01/03 02:46:30;;;;;;;16.40;3.20;;;;;;;8.12;77.13;99345.31;4971281;28;20097;-52
2022/01/03 02:48:57;;;;;;;12.75;1.52;;;;;;;8.16;77.25;99353.88;4969413;28;20078;-57
2022/01/03 02:51:23;;;;;;;14.98;1.33;;;;;;;8.14;76.79;99335.81;4959611;28;20096;-53
2022/01/03 02:53:50;;;;;;;16.92;1.85;;;;;;;8.11;77.42;99338.44;4959102;28;20054;-53
2022/01/03 02:56:17;;;;;;;12.60;1.05;;;;;;;8.09;77.44;99335.00;4964537;28;20098;-57
2022/01/03 02:58:43;;;;;;;10.82;1.13;;;;;;;8.05;77.23;99348.78;4965062;28;20050;-54
2022/01/03 03:01:10;;;;;;;8.18;1.23;;;;;;;8.01;76.89;99347.06;4968991;28;20467;-55
2022/01/03 03:03:38;;;;;;;8.52;1.27;;;;;;;8.00;77.29;99353.94;4970941;28;20043;-60
2022/01/03 03:06:04;;;;;;;12.20;0.93;;;;;;;7.92;77.37;99343.66;4964420;28;20090;-55
2022/01/03 03:08:31;;;;;;;11.50;1.30;;;;;;;7.92;76.95;99338.50;4967448;28;20483;-51
2022/01/03 03:10:57;;;;;;;13.38;1.27;;;;;;;7.92;76.96;99332.47;4957913;28;20102;-55
2022/01/03 03:13:24;;;;;;;16.15;1.35;;;;;;;7.91;76.83;99341.91;4962790;28;20047;-53
2022/01/03 03:15:51;;;;;;;9.52;1.50;;;;;;;7.86;77.34;99343.66;4967464;28;20113;-53
2022/01/03 03:18:18;;;;;;;10.35;0.90;;;;;;;7.84;76.10;99347.97;4968162;28;20050;-49
2022/01/03 03:20:45;;;;;;;13.48;1.48;;;;;;;7.83;76.65;99343.66;4953898;28;20065;-53
2022/01/03 03:23:11;;;;;;;10.10;1.50;;;;;;;7.79;76.52;99340.25;4966281;28;20051;-54
2022/01/03 03:25:38;;;;;;;9.80;0.95;;;;;;;7.78;76.21;99346.28;4964563;28;20427;-59
2022/01/03 03:28:10;;;;;;;15.75;1.63;;;;;;;7.75;77.79;99335.09;4973107;28;20086;-58
2022/01/03 03:30:39;;;;;;;8.50;1.17;;;;;;;7.75;77.12;99337.69;4968607;28;20054;-57
2022/01/03 03:33:11;;;;;;;11.27;1.65;;;;;;;7.74;76.85;99339.41;4968691;28;20046;-57
2022/01/03 03:35:38;;;;;;;7.95;1.25;;;;;;;7.70;77.45;99327.41;4952933;28;20120;-57
2022/01/03 03:38:04;;;;;;;10.65;1.33;;;;;;;7.68;76.58;99329.97;4963813;28;20055;-61
2022/01/03 03:40:31;;;;;;;12.30;0.90;;;;;;;7.63;76.92;99321.38;4961750;28;20043;-54
2022/01/03 03:42:58;;;;;;;10.95;1.30;;;;;;;7.66;76.18;99326.53;4952459;28;20054;-53
2022/01/03 03:45:25;;;;;;;5.13;0.77;;;;;;;7.61;75.99;99323.13;4966627;28;20046;-55
2022/01/03 03:47:52;;;;;;;9.65;1.30;;;;;;;7.63;76.44;99320.53;4969490;28;20368;-50
2022/01/03 03:50:20;;;;;;;8.13;1.02;;;;;;;7.61;76.69;99306.78;4967407;28;21281;-52
2022/01/03 03:52:52;;;;;;;11.57;1.20;;;;;;;7.59;77.68;99309.38;4966289;28;20051;-59
2022/01/03 03:55:19;;;;;;;20.08;1.73;;;;;;;7.58;76.85;99312.81;4965330;28;20604;-54
2022/01/03 03:57:45;;;;;;;9.00;1.20;;;;;;;7.56;77.22;99315.38;4959648;28;20051;-52
2022/01/03 04:00:15;;;;;;;8.50;1.15;;;;;;;7.56;76.89;99309.38;4960997;28;20093;-53
2022/01/03 04:02:42;;;;;;;8.05;1.80;;;;;;;7.56;77.83;99307.66;4967830;28;20046;-59
2022/01/03 04:05:09;;;;;;;7.32;1.08;;;;;;;7.55;76.43;99312.81;4964952;28;20057;-56
2022/01/03 04:07:36;;;;;;;11.40;1.15;;;;;;;7.53;76.46;99305.09;4961140;28;20165;-52
2022/01/03 04:10:05;;;;;;;4.68;1.08;;;;;;;7.50;77.23;99304.25;4955571;28;20054;-56
2022/01/03 04:12:32;;;;;;;12.02;2.97;;;;;;;7.50;77.33;99301.66;4966617;28;20093;-56
2022/01/03 04:14:59;;;;;;;10.45;1.23;;;;;;;7.49;76.98;99302.53;4968860;28;20109;-58
2022/01/03 04:17:25;;;;;;;11.02;0.98;;;;;;;7.46;77.34;99299.09;4968653;28;20125;-53
2022/01/03 04:19:52;;;;;;;15.32;1.02;;;;;;;7.46;76.16;99305.94;4961878;28;20055;-59
2022/01/03 04:22:19;;;;;;;7.63;1.30;;;;;;;7.41;76.21;99298.25;4962743;28;20133;-55
2022/01/03 04:24:45;;;;;;;10.23;0.73;;;;;;;7.40;76.33;99299.09;4952932;28;20042;-56
2022/01/03 04:27:12;;;;;;;11.73;1.08;;;;;;;7.41;75.64;99293.09;4963981;28;20110;-55
2022/01/03 04:29:39;;;;;;;12.15;1.55;;;;;;;7.39;75.91;99292.22;4967183;28;20051;-57
2022/01/03 04:32:05;;;;;;;11.93;1.10;;;;;;;7.39;76.86;99287.06;4963088;28;20046;-57
2022/01/03 04:34:32;;;;;;;11.65;0.95;;;;;;;7.37;75.85;99286.25;4967667;28;20055;-53
2022/01/03 04:36:59;;;;;;;11.65;1.60;;;;;;;7.36;76.08;99302.53;4966570;28;20157;-53
2022/01/03 04:39:26;;;;;;;10.50;1.05;;;;;;;7.35;76.44;99295.69;4957112;28;20063;-54
2022/01/03 04:41:52;;;;;;;6.00;0.68;;;;;;;7.36;75.98;99294.81;4960347;28;20106;-56
2022/01/03 04:44:19;;;;;;;10.88;1.42;;;;;;;7.34;76.43;99296.53;4963372;28;20094;-54
2022/01/03 04:46:46;;;;;;;11.52;0.68;;;;;;;7.31;76.35;99297.41;4967928;28;20058;-54
2022/01/03 04:49:13;;;;;;;9.75;0.65;;;;;;;7.29;76.52;99305.97;4967127;28;20060;-55
2022/01/03 04:51:39;;;;;;;11.00;1.10;;;;;;;7.26;76.29;99306.00;4965495;28;20143;-54
2022/01/03 04:54:07;;;;;;;5.68;1.08;;;;;;;7.27;75.25;99307.72;4960134;28;20059;-54
2022/01/03 04:56:33;;;;;;;13.45;1.40;;;;;;;7.26;75.14;99311.16;4956130;28;20117;-60
2022/01/03 04:59:00;;;;;;;16.98;1.20;;;;;;;7.22;76.11;99304.28;4962117;28;20047;-56
2022/01/03 05:01:27;;;;;;;14.82;1.17;;;;;;;7.20;76.43;99297.41;4966383;28;20051;-61
2022/01/03 05:03:54;;;;;;;5.05;1.27;;;;;;;7.18;76.40;99299.13;4964429;28;20090;-57
2022/01/03 05:06:21;;;;;;;10.63;1.45;;;;;;;7.18;75.45;99294.00;4966691;28;20042;-51
2022/01/03 05:08:47;;;;;;;10.00;0.68;;;;;;;7.14;76.57;99297.44;4965846;28;20051;-56
2022/01/03 05:11:14;;;;;;;6.95;1.23;;;;;;;7.15;75.45;99293.97;4953790;28;20059;-58
2022/01/03 05:13:41;;;;;;;11.48;1.17;;;;;;;7.15;75.32;99282.81;4962690;28;20109;-57
2022/01/03 05:16:09;;;;;;;9.30;0.93;;;;;;;7.12;75.51;99281.09;4966200;28;20043;-52
2022/01/03 05:18:36;;;;;;;15.52;2.17;;;;;;;7.11;76.70;99286.25;4966021;28;20070;-51
2022/01/03 05:21:03;;;;;;;7.90;1.45;;;;;;;7.05;76.16;99281.97;4964972;28;20051;-53
2022/01/03 05:23:30;;;;;;;11.73;1.55;;;;;;;7.06;75.54;99278.56;4966863;28;20118;-54
2022/01/03 05:25:57;;;;;;;11.70;1.55;;;;;;;7.05;76.39;99277.69;4957919;28;21092;-53
2022/01/03 05:28:23;;;;;;;6.43;0.70;;;;;;;7.05;77.14;99276.81;4951479;28;20054;-53
2022/01/03 05:30:50;;;;;;;14.63;1.58;;;;;;;7.03;76.30;99278.56;4963803;28;20069;-56
2022/01/03 05:33:16;;;;;;;9.73;1.42;;;;;;;6.99;75.49;99271.69;4965224;28;20537;-57
2022/01/03 05:35:43;;;;;;;14.77;1.80;;;;;;;7.01;75.85;99278.53;4965522;28;20079;-54
2022/01/03 05:38:10;;;;;;;16.63;1.60;;;;;;;7.01;75.93;99275.09;4965701;28;20099;-56
2022/01/03 05:40:36;;;;;;;10.80;0.98;;;;;;;7.02;76.58;99271.66;4966593;28;20047;-57
2022/01/03 05:43:03;;;;;;;11.80;0.95;;;;;;;7.01;75.27;99272.53;4952636;28;20054;-59
2022/01/03 05:45:29;;;;;;;15.40;1.10;;;;;;;7.00;77.10;99266.53;4952063;28;20105;-54
2022/01/03 05:47:56;;;;;;;11.50;1.10;;;;;;;6.96;75.63;99261.38;4965187;28;20130;-55
2022/01/03 05:50:24;;;;;;;12.75;1.80;;;;;;;7.01;76.50;99262.22;4964210;28;20054;-55
2022/01/03 05:52:50;;;;;;;13.50;1.42;;;;;;;6.94;75.72;99251.94;4964623;28;20051;-56
2022/01/03 05:55:19;;;;;;;15.48;1.75;;;;;;;6.99;76.07;99256.25;4964710;28;20051;-57
2022/01/03 05:57:45;;;;;;;15.95;1.65;;;;;;;6.98;76.04;99259.66;4968949;28;20046;-58
2022/01/03 06:00:16;;;;;;;10.25;1.98;;;;;;;6.98;76.25;99254.50;4951735;28;20055;-53
2022/01/03 06:02:43;;;;;;;;;;;;;;;6.91;76.04;99258.81;4953715;28;20047;-57
2022/01/03 06:05:18;;;;;;;16.30;1.05;;;;;;;6.94;76.62;99251.94;4965779;28;20420;-60
2022/01/03 06:07:45;;;;;;;14.70;1.67;;;;;;;6.92;75.62;99251.09;4966016;28;20121;-58
2022/01/03 06:10:16;;;;;;;14.43;1.70;;;;;;;6.96;75.14;99258.81;4967251;28;20050;-55
2022/01/03 06:12:45;;;;;;;8.07;1.23;;;;;;;6.94;75.31;99254.53;4964839;28;20062;-55
2022/01/03 06:15:13;;;;;;;8.68;0.90;;;;;;;6.94;76.09;99251.94;4965132;28;20042;-54
2022/01/03 06:17:41;;;;;;;9.85;0.98;;;;;;;6.93;75.60;99252.78;4964634;28;20083;-56
2022/01/03 06:20:09;;;;;;;9.75;1.48;;;;;;;6.93;75.85;99250.22;4961139;28;20447;-56
2022/01/03 06:22:35;;;;;;;12.85;1.90;;;;;;;6.92;75.76;99245.06;4965777;28;20454;-56
2022/01/03 06:25:02;;;;;;;6.32;2.00;;;;;;;6.92;76.42;99245.94;4965765;28;20101;-54
2022/01/03 06:27:29;;;;;;;9.63;0.82;;;;;;;6.91;75.78;99249.38;4947513;28;20404;-54
2022/01/03 06:29:55;;;;;;;11.30;1.15;;;;;;;6.88;76.18;99254.53;4941413;28;21649;-53
2022/01/03 06:32:22;;;;;;;9.20;1.38;;;;;;;6.85;75.54;99249.38;4950466;28;20562;-58
2022/01/03 06:34:49;;;;;;;9.93;1.27;;;;;;;6.84;75.64;99246.78;4949535;28;20059;-52
2022/01/03 06:37:15;;;;;;;14.48;1.33;;;;;;;6.88;75.12;99249.38;4948296;28;20051;-58
2022/01/03 06:39:42;;;;;;;14.63;0.70;;;;;;;6.86;75.47;99256.22;4949786;28;20047;-52
2022/01/03 06:42:08;;;;;;;11.25;1.08;;;;;;;6.83;76.70;99256.25;4957863;28;20128;-53
2022/01/03 06:44:35;;;;;;;8.95;1.08;;;;;;;6.85;75.71;99264.81;4957527;28;21826;-53
2022/01/03 06:47:02;;;;;;;7.28;1.30;;;;;;;6.85;75.10;99264.81;4966362;28;20043;-58
2022/01/03 06:49:28;;;;;;;15.15;1.33;;;;;;;6.80;74.99;99256.25;4967690;28;20054;-54
2022/01/03 06:51:55;;;;;;;9.82;1.52;;;;;;;6.80;75.04;99261.41;4967022;28;20059;-57
2022/01/03 06:54:22;;;;;;;15.32;1.27;;;;;;;6.79;75.86;99249.38;4966116;28;20055;-56
2022/01/03 06:56:48;;;;;;;8.07;0.80;;;;;;;6.76;75.56;99244.22;4967047;28;20066;-51
2022/01/03 06:59:15;;;;;;;13.20;1.05;;;;;;;6.75;75.37;99247.69;4955888;28;20055;-53
2022/01/03 07:01:41;;;;;;;11.85;1.42;;;;;;;6.71;77.09;99239.06;4968520;28;20113;-56
2022/01/03 07:04:08;;;;;;;6.43;1.27;;;;;;;6.69;75.74;99239.06;4959948;28;20152;-52
2022/01/03 07:06:36;;;;;;;10.88;1.13;;;;;;;6.67;76.02;99235.66;4955560;28;20059;-54
2022/01/03 07:09:07;;;;;;;8.10;1.25;;;;;;;6.65;76.06;99232.22;4967321;28;20051;-55
2022/01/03 07:11:34;;;;;;;17.33;1.45;;;;;;;6.67;75.39;99233.09;4965515;28;20042;-51
2022/01/03 07:18:56;;;;;;;12.80;1.25;;;;;;;6.63;76.17;99228.81;4965364;28;20451;-57
2022/01/03 07:19:39;;;;;;;11.52;1.25;;;;;;;6.64;75.83;99220.22;4957028;28;20122;-59
2022/01/03 07:22:08;;;;;;;16.25;1.88;;;;;;;6.64;76.72;99222.78;4955977;28;20110;-54
2022/01/03 07:24:36;;;;;;;14.75;1.50;;;;;;;6.65;76.43;99211.63;4964323;28;20051;-53
2022/01/03 07:27:05;;;;;;;13.25;2.58;;;;;;;6.66;76.54;99221.06;4964247;28;20058;-57
2022/01/03 07:29:31;;;;;;;12.80;1.85;;;;;;;6.65;76.38;99221.91;4967143;28;20055;-52
2022/01/03 07:31:59;;;;;;;9.98;1.10;;;;;;;6.68;75.91;99210.75;4966569;28;20149;-54
2022/01/03 07:34:26;;;;;;;10.18;1.45;;;;;;;6.68;76.49;99221.94;4958895;28;20523;-52
2022/01/03 07:36:53;;;;;;;7.20;1.73;;;;;;;6.69;75.59;99222.78;4956137;28;20476;-54
2022/01/03 07:39:20;;;;;;;15.95;2.05;;;;;;;6.68;76.27;99237.38;4965380;28;20046;-52
2022/01/03 07:41:46;;;;;;;16.30;1.27;;;;;;;6.71;76.88;99231.34;4954786;28;20074;-54
2022/01/03 07:44:13;;;;;;;16.48;1.17;;;;;;;6.72;76.75;99227.06;4960513;28;20070;-55
2022/01/03 07:46:40;;;;;;;8.63;1.10;;;;;;;6.68;77.02;99232.22;4964569;28;20101;-53
2022/01/03 07:49:06;;;;;;;10.63;2.08;;;;;;;6.71;76.10;99230.50;4969597;28;20101;-57
2022/01/03 07:51:33;;;;;;;9.98;1.35;;;;;;;6.69;76.55;99228.78;4968041;28;20550;-51
2022/01/03 07:54:00;;;;;;;9.32;1.10;;;;;;;6.69;76.17;99231.34;4965338;28;20046;-56
2022/01/03 07:56:26;;;;;;;14.30;1.05;;;;;;;6.71;77.54;99235.63;4957268;28;20061;-56
2022/01/03 07:58:53;;;;;;;11.18;1.10;;;;;;;6.72;77.33;99243.34;4954030;28;20558;-54
2022/01/03 08:01:20;;;;;;;12.48;2.42;;;;;;;6.76;77.74;99233.94;4958760;28;20502;-57
2022/01/03 08:03:47;;;;;;;14.98;1.40;;;;;;;6.79;77.78;99254.53;4969792;28;20054;-57
2022/01/03 08:06:33;;;;;;;14.40;1.17;;;;;;;6.86;76.09;99240.78;4964697;28;20047;-55
2022/01/03 08:09:00;;;;;;;13.13;1.23;;;;;;;6.92;76.42;99238.22;4968139;28;20046;-54
2022/01/03 08:11:27;;;;;;;13.00;1.52;;;;;;;6.97;76.20;99237.34;4960551;28;20047;-57
2022/01/03 08:13:53;;;;;;;10.43;1.52;;;;;;;7.01;75.99;99227.06;4941137;28;20060;-60
2022/01/03 08:16:20;;;;;;;6.50;0.90;;;;;;;7.02;76.37;99240.75;4940697;28;20082;-58
2022/01/03 08:18:47;;;;;;;12.90;1.42;;;;;;;7.04;77.44;99228.75;4948281;28;20043;-56
2022/01/03 08:21:14;;;;;;;14.15;1.90;;;;;;;7.03;76.04;99234.78;4939875;28;20113;-54
2022/01/03 08:23:40;;;;;;;14.55;1.52;;;;;;;7.01;75.91;99228.75;4942035;28;20817;-57
2022/01/03 08:26:07;;;;;;;10.20;1.35;;;;;;;7.02;77.36;99233.03;4941065;28;20047;-58
2022/01/03 08:28:34;;;;;;;16.05;2.42;;;;;;;7.02;77.40;99239.06;4937626;28;20059;-54
2022/01/03 08:31:00;;;;;;;15.35;1.38;;;;;;;7.03;76.78;99227.88;4934978;28;20099;-55
2022/01/03 08:33:27;;;;;;;8.98;1.02;;;;;;;7.03;75.97;99227.06;4935201;28;20685;-56
2022/01/03 08:35:54;;;;;;;14.57;1.33;;;;;;;7.05;75.63;99220.16;4942941;28;20507;-54
2022/01/03 08:38:21;;;;;;;12.13;1.15;;;;;;;7.02;76.92;99221.03;4941828;28;20578;-51
2022/01/03 08:40:48;;;;;;;16.83;1.40;;;;;;;7.07;75.67;99228.75;4954673;28;20145;-50
2022/01/03 08:43:15;;;;;;;8.25;1.02;;;;;;;7.12;76.92;99232.19;4963113;28;20046;-56
2022/01/03 08:45:41;;;;;;;17.35;1.70;;;;;;;7.22;75.87;99232.19;4967341;28;20123;-53
2022/01/03 08:48:08;;;;;;;11.20;1.33;;;;;;;7.31;75.44;99238.16;4964399;28;20042;-54
2022/01/03 08:50:35;;;;;;;17.30;1.88;;;;;;;7.45;75.50;99240.69;4962921;28;20125;-53
2022/01/03 08:53:04;;;;;;;10.00;0.85;;;;;;;7.64;75.06;99238.06;4959719;28;20102;-57
2022/01/03 08:55:31;;;;;;;11.20;1.30;;;;;;;7.82;74.84;99238.84;4959144;28;20051;-57
2022/01/03 08:57:58;;;;;;;8.50;1.42;;;;;;;8.00;74.87;99234.47;4958750;28;20989;-55
2022/01/03 09:00:27;;;;;;;6.78;1.52;;;;;;;8.17;74.27;99235.22;4962064;28;20047;-55
2022/01/03 09:02:54;;;;;;;16.00;1.85;;;;;;;8.34;73.47;99229.94;4949969;28;20043;-57
2022/01/03 09:05:21;;;;;;;10.15;1.60;;;;;;;8.59;74.00;99236.69;4943520;28;20086;-54
2022/01/03 09:07:48;;;;;;;9.30;1.23;;;;;;;8.83;73.66;99239.94;4941043;28;20536;-56
2022/01/03 09:10:14;;;;;;;14.68;1.45;;;;;;;9.06;73.98;99229.41;4963970;28;20062;-55
2022/01/03 09:12:41;;;;;;;8.25;1.13;;;;;;;9.35;72.91;99227.38;4963740;28;20050;-54
2022/01/03 09:15:07;;;;;;;14.52;1.52;;;;;;;9.62;72.05;99225.34;4952931;28;20086;-52
2022/01/03 09:17:34;;;;;;;14.18;2.58;;;;;;;9.94;71.98;99220.66;4961892;28;20054;-57
2022/01/03 09:20:01;;;;;;;12.27;1.23;;;;;;;10.34;71.50;99224.41;4969005;28;20043;-54
2022/01/03 09:22:34;;;;;;;14.93;1.55;;;;;;;10.67;69.42;99222.19;4965288;28;20042;-58
2022/01/03 09:30:36;;;;;;;9.15;1.77;;;;;;;11.48;67.60;99230.28;4960309;28;20090;-55
2022/01/03 09:33:03;;;;;;;13.70;0.82;;;;;;;11.76;66.96;99240.91;4962407;28;20503;-53
2022/01/03 09:35:30;;;;;;;10.02;2.00;;;;;;;11.99;66.63;99233.56;4962965;28;20105;-58
2022/01/03 09:37:56;;;;;;;13.90;1.77;;;;;;;12.29;65.53;99224.25;4957909;28;20074;-52
2022/01/03 09:40:23;;;;;;;13.10;2.30;;;;;;;12.56;64.71;99237.47;4966803;28;20117;-53
2022/01/03 09:42:55;;;;;;;16.45;2.03;;;;;;;12.93;64.54;99245.25;4965092;28;20055;-53
2022/01/03 09:45:26;;;;;;;11.75;1.52;;;;;;;13.24;62.53;99242.72;4964613;28;20118;-57
2022/01/03 09:47:55;;;;;;;10.60;1.60;;;;;;;13.57;63.73;99251.41;4964459;28;20046;-57
2022/01/03 09:50:22;;;;;;;11.98;1.50;;;;;;;13.81;62.48;99244.66;4960839;28;20053;-56
2022/01/03 09:52:50;;;;;;;10.95;1.42;;;;;;;14.02;60.48;99242.31;4962291;28;20058;-51
2022/01/03 09:55:19;;;;;;;11.27;1.20;;;;;;;14.19;61.16;99246.16;4963960;28;20145;-56
2022/01/03 09:57:47;;;;;;;11.95;1.30;;;;;;;14.26;60.66;99245.09;4962130;28;20133;-53
2022/01/03 10:00:16;;;;;;;13.50;2.47;;;;;;;14.24;60.19;99241.66;4950787;28;20050;-53
2022/01/03 10:02:45;;;;;;;7.82;0.75;;;;;;;14.07;60.34;99244.78;4968431;28;20047;-56
2022/01/03 10:05:12;;;;;;;9.75;1.52;;;;;;;13.68;59.90;99245.91;4966850;28;20093;-53
2022/01/03 10:07:40;;;;;;;10.27;1.15;;;;;;;13.56;60.97;99223.69;4967429;28;20047;-53
2022/01/03 10:10:08;;;;;;;9.77;1.23;;;;;;;13.39;60.66;99229.31;4970304;28;20395;-56
2022/01/03 10:12:36;;;;;;;10.90;1.38;;;;;;;13.14;61.87;99222.19;4972280;28;20368;-53
2022/01/03 10:15:05;;;;;;;11.27;1.38;;;;;;;12.93;61.42;99227.03;4970903;28;20094;-55
2022/01/03 10:17:37;;;;;;;11.68;1.05;;;;;;;12.71;62.29;99225.00;4962074;28;20059;-54
2022/01/03 10:20:05;;;;;;;11.02;1.33;;;;;;;12.46;62.72;99225.59;4964518;28;20046;-52
2022/01/03 10:22:34;;;;;;;7.05;1.15;;;;;;;12.47;63.83;99222.97;4963381;28;20047;-52
2022/01/03 10:25:11;;;;;;;7.32;1.00;;;;;;;12.51;63.53;99223.75;4958833;28;20458;-57
2022/01/03 10:27:56;;;;;;;16.02;2.15;;;;;;;12.21;61.93;99221.84;4962395;28;20051;-55
2022/01/03 10:30:34;;;;;;;8.18;1.80;;;;;;;11.94;63.37;99228.47;4961703;28;20058;-52
2022/01/03 10:33:03;;;;;;;14.90;2.15;;;;;;;11.64;64.16;99225.63;4963009;28;20137;-57
2022/01/03 10:35:41;;;;;;;14.32;2.72;;;;;;;11.57;64.29;99220.56;4968042;28;20045;-57
2022/01/03 10:38:09;;;;;;;18.27;3.38;;;;;;;11.86;63.72;99225.19;4964493;28;20047;-54
2022/01/03 10:40:37;;;;;;;10.23;1.10;;;;;;;12.14;63.18;99219.41;4961106;28;20059;-56
2022/01/03 10:43:15;;;;;;;19.88;3.03;;;;;;;12.40;62.68;99215.38;4962120;28;20059;-54
2022/01/03 10:45:43;;;;;;;13.25;3.22;;;;;;;12.74;62.48;99219.75;4960638;28;20061;-56
2022/01/03 10:48:31;;;;;;;16.63;3.10;;;;;;;13.02;61.18;99215.56;4965639;28;20065;-52
2022/01/03 10:51:00;;;;;;;9.30;2.15;;;;;;;13.09;60.10;99220.56;4968280;28;20059;-52
2022/01/03 10:53:32;;;;;;;10.93;1.63;;;;;;;12.93;59.94;99220.13;4971017;28;20046;-58
2022/01/03 10:55:59;;;;;;;13.23;2.78;;;;;;;12.69;59.96;99224.19;4961006;28;20386;-56
2022/01/03 10:58:33;;;;;;;9.10;1.40;;;;;;;12.43;61.30;99216.13;4968674;28;20042;-58
2022/01/03 11:01:00;;;;;;;9.43;2.75;;;;;;;12.28;61.85;99221.69;4969850;28;20573;-54
2022/01/03 11:03:34;;;;;;;10.32;2.50;;;;;;;12.17;61.47;99214.16;4969048;28;20055;-54
2022/01/03 11:06:13;;;;;;;27.40;6.25;;;;;;;12.08;61.97;99210.88;4969042;28;20065;-54
2022/01/03 11:11:36;;;;;;;27.38;4.75;;;;;;;11.77;62.05;99210.66;4968227;28;20047;-53
2022/01/03 11:14:03;;;;;;;38.15;7.82;;;;;;;11.67;63.14;99199.63;4967295;28;20109;-56
2022/01/03 11:16:32;;;;;;;20.70;5.50;;;;;;;11.52;63.29;99208.59;4968458;28;20057;-53
2022/01/03 11:18:59;;;;;;;29.23;4.22;;;;;;;11.40;63.66;99194.97;4967159;28;20106;-56
2022/01/03 11:21:28;;;;;;;16.50;2.13;;;;;;;11.18;64.13;99197.13;4967163;28;20446;-55
2022/01/03 11:24:09;;;;;;;14.10;2.58;;;;;;;10.92;63.64;99196.72;4969617;28;20094;-57
2022/01/03 11:26:47;;;;;;;21.10;2.63;;;;;;;10.72;64.17;99183.25;4967785;28;20043;-51
2022/01/03 11:29:15;;;;;;;19.00;2.22;;;;;;;10.52;64.53;99177.56;4970773;28;20053;-56
2022/01/03 11:31:42;;;;;;;13.70;1.75;;;;;;;10.35;64.68;99175.22;4966975;28;20058;-52
2022/01/03 11:34:10;;;;;;;21.80;4.47;;;;;;;10.20;65.86;99171.09;4971356;28;20050;-54
2022/01/03 11:36:57;;;;;;;26.15;5.88;;;;;;;10.09;66.13;99149.72;4970426;28;20054;-57
2022/01/03 11:39:28;;;;;;;15.02;3.42;;;;;;;9.97;66.28;99161.13;4970625;28;20055;-54
2022/01/03 11:41:55;;;;;;;14.27;3.55;;;;;;;9.85;66.20;99151.78;4967920;28;20117;-53
2022/01/03 11:44:22;;;;;;;11.93;2.58;;;;;;;9.71;66.52;99142.50;4964526;28;20106;-56
2022/01/03 11:46:49;;;;;;;13.55;2.08;;;;;;;9.60;66.93;99149.53;4968267;28;20097;-56
2022/01/03 11:49:17;;;;;;;10.77;1.92;;;;;;;9.45;67.05;99151.44;4971404;28;20050;-55
2022/01/03 11:51:45;;;;;;;11.85;2.33;;;;;;;9.38;67.52;99144.63;4969085;28;20517;-57